createdAt,value
2022-08-18T00:02:01.201Z,11.60
2022-08-18T00:04:36.262Z,11.60
2022-08-18T00:07:05.978Z,11.60
2022-08-18T00:09:36.311Z,11.70
2022-08-18T00:12:08.128Z,11.70
2022-08-18T00:14:35.403Z,11.80
2022-08-18T00:17:02.496Z,11.80
2022-08-18T00:19:46.593Z,11.80
2022-08-18T00:22:17.908Z,11.80
2022-08-18T00:24:49.286Z,11.80
2022-08-18T00:27:28.726Z,11.80
2022-08-18T00:30:01.410Z,11.70
2022-08-18T00:32:34.977Z,11.70
2022-08-18T00:35:13.769Z,11.70
2022-08-18T00:37:42.420Z,11.70
2022-08-18T00:40:14.043Z,11.70
2022-08-18T00:42:45.913Z,11.60
2022-08-18T00:45:25.492Z,11.70
2022-08-18T00:47:53.442Z,11.70
2022-08-18T00:50:31.834Z,11.70
2022-08-18T00:53:03.973Z,11.70
2022-08-18T00:55:33.576Z,11.60
2022-08-18T00:58:16.002Z,11.60
2022-08-18T01:00:45.398Z,11.60
2022-08-18T01:03:16.855Z,11.60
2022-08-18T01:06:11.842Z,11.60
2022-08-18T01:08:41.135Z,11.60
2022-08-18T01:11:10.661Z,11.60
2022-08-18T01:13:41.716Z,11.50
2022-08-18T01:16:27.923Z,11.50
2022-08-18T01:19:13.390Z,11.50
2022-08-18T01:21:53.669Z,11.40
2022-08-18T01:24:54.408Z,11.40
2022-08-18T01:27:22.029Z,11.40
2022-08-18T01:29:50.365Z,11.40
2022-08-18T01:32:22.939Z,11.40
2022-08-18T01:34:52.465Z,11.40
2022-08-18T01:37:23.558Z,11.40
2022-08-18T01:41:24.377Z,11.40
2022-08-18T01:42:39.605Z,11.30
2022-08-18T01:45:08.199Z,11.30
2022-08-18T01:47:47.354Z,11.30
2022-08-18T01:50:23.953Z,11.30
2022-08-18T01:52:53.554Z,11.30
2022-08-18T01:55:21.413Z,11.30
2022-08-18T01:57:48.571Z,11.30
2022-08-18T02:00:18.460Z,11.30
2022-08-18T02:02:47.186Z,11.40
2022-08-18T02:05:51.035Z,11.40
2022-08-18T02:08:18.211Z,11.40
2022-08-18T02:10:45.915Z,11.40
2022-08-18T02:13:13.164Z,11.40
2022-08-18T02:15:41.937Z,11.50
2022-08-18T02:18:32.429Z,11.50
2022-08-18T02:21:14.906Z,11.50
2022-08-18T02:23:52.782Z,11.60
2022-08-18T02:26:23.480Z,11.50
2022-08-18T02:28:51.006Z,11.50
2022-08-18T02:31:20.380Z,11.60
2022-08-18T02:33:52.064Z,11.60
2022-08-18T02:36:23.817Z,11.60
2022-08-18T02:38:54.842Z,11.60
2022-08-18T02:41:29.671Z,11.60
2022-08-18T02:43:58.424Z,11.60
2022-08-18T02:46:30.015Z,11.60
2022-08-18T02:48:59.782Z,11.70
2022-08-18T02:51:26.997Z,11.70
2022-08-18T02:53:54.983Z,11.70
2022-08-18T02:56:32.927Z,11.70
2022-08-18T02:59:12.197Z,11.70
2022-08-18T03:01:42.306Z,11.60
2022-08-18T03:04:12.621Z,11.60
2022-08-18T03:06:40.024Z,11.60
2022-08-18T03:09:10.489Z,11.60
2022-08-18T03:11:38.540Z,11.50
2022-08-18T03:14:07.422Z,11.50
2022-08-18T03:16:52.989Z,11.50
2022-08-18T03:19:23.866Z,11.50
2022-08-18T03:21:51.153Z,11.50
2022-08-18T03:24:22.299Z,11.40
2022-08-18T03:26:49.700Z,11.40
2022-08-18T03:29:17.014Z,11.30
2022-08-18T03:31:45.567Z,11.30
2022-08-18T03:34:13.232Z,11.30
2022-08-18T03:36:43.116Z,11.30
2022-08-18T03:39:12.336Z,11.30
2022-08-18T03:41:58.692Z,11.20
2022-08-18T03:44:33.791Z,11.30
2022-08-18T03:47:03.920Z,11.40
2022-08-18T03:49:33.870Z,11.50
2022-08-18T03:52:01.731Z,11.50
2022-08-18T03:54:32.445Z,11.60
2022-08-18T03:59:45.077Z,11.70
2022-08-18T04:02:12.264Z,11.80
2022-08-18T04:04:43.042Z,11.80
2022-08-18T04:07:14.456Z,11.80
2022-08-18T04:09:43.007Z,11.70
2022-08-18T04:12:16.198Z,11.70
2022-08-18T04:14:48.608Z,11.70
2022-08-18T04:17:24.417Z,11.70
2022-08-18T04:19:52.382Z,11.80
2022-08-18T04:22:19.612Z,11.90
2022-08-18T04:24:49.664Z,11.90
2022-08-18T04:27:18.164Z,12.00
2022-08-18T04:29:45.259Z,12.00
2022-08-18T04:32:12.457Z,12.00
2022-08-18T04:34:39.586Z,12.00
2022-08-18T04:37:09.708Z,12.10
2022-08-18T04:39:37.762Z,12.10
2022-08-18T04:42:06.054Z,12.10
2022-08-18T04:44:33.814Z,12.20
2022-08-18T04:47:02.130Z,12.20
2022-08-18T04:49:30.438Z,12.20
2022-08-18T04:52:34.864Z,12.30
2022-08-18T04:55:04.085Z,12.30
2022-08-18T04:57:34.919Z,12.40
2022-08-18T05:00:04.225Z,12.40
2022-08-18T05:02:33.222Z,12.50
2022-08-18T05:05:04.235Z,12.50
2022-08-18T05:07:31.687Z,12.60
2022-08-18T05:09:59.265Z,12.60
2022-08-18T05:12:27.052Z,12.60
2022-08-18T05:14:57.200Z,12.60
2022-08-18T05:17:30.030Z,12.60
2022-08-18T05:20:02.093Z,12.70
2022-08-18T05:22:31.337Z,12.70
2022-08-18T05:27:45.297Z,12.80
2022-08-18T05:30:14.644Z,12.80
2022-08-18T05:32:48.716Z,12.90
2022-08-18T05:35:22.292Z,12.80
2022-08-18T05:38:22.426Z,12.90
2022-08-18T05:41:14.935Z,12.90
2022-08-18T05:43:51.834Z,12.90
2022-08-18T05:46:40.103Z,13.00
2022-08-18T05:49:08.475Z,13.00
2022-08-18T05:51:42.513Z,13.00
2022-08-18T05:54:29.859Z,13.00
2022-08-18T05:57:02.495Z,13.00
2022-08-18T05:59:38.697Z,13.10
2022-08-18T06:02:33.286Z,13.10
2022-08-18T06:05:13.282Z,13.10
2022-08-18T06:07:44.438Z,13.20
2022-08-18T06:10:13.338Z,13.20
2022-08-18T06:12:47.212Z,13.20
2022-08-18T06:15:25.263Z,13.20
2022-08-18T06:18:14.481Z,13.30
2022-08-18T06:21:00.021Z,13.30
2022-08-18T06:23:33.441Z,13.30
2022-08-18T06:26:24.204Z,13.40
2022-08-18T06:29:25.166Z,13.40
2022-08-18T06:32:02.014Z,13.40
2022-08-18T06:35:04.142Z,13.50
2022-08-18T06:37:56.675Z,13.50
2022-08-18T06:40:25.085Z,13.50
2022-08-18T06:42:52.297Z,13.50
2022-08-18T06:45:33.809Z,13.60
2022-08-18T06:48:23.041Z,13.60
2022-08-18T06:50:58.841Z,13.60
2022-08-18T06:53:54.802Z,13.60
2022-08-18T06:56:45.175Z,13.70
2022-08-18T06:59:29.308Z,13.60
2022-08-18T07:02:19.685Z,13.70
2022-08-18T07:05:05.635Z,13.70
2022-08-18T07:07:50.912Z,13.80
2022-08-18T07:10:18.303Z,13.80
2022-08-18T07:12:45.390Z,13.70
2022-08-18T07:15:13.479Z,13.70
2022-08-18T07:17:44.085Z,13.70
2022-08-18T07:20:22.833Z,13.70
2022-08-18T07:23:02.434Z,13.70
2022-08-18T07:26:01.859Z,13.80
2022-08-18T07:28:30.109Z,13.80
2022-08-18T07:31:31.929Z,13.70
2022-08-18T07:34:02.314Z,13.80
2022-08-18T07:36:35.640Z,13.80
2022-08-18T07:39:14.627Z,13.80
2022-08-18T07:41:49.507Z,13.90
2022-08-18T07:44:25.895Z,13.80
2022-08-18T07:47:00.731Z,13.80
2022-08-18T07:49:35.300Z,13.80
2022-08-18T07:52:35.805Z,13.80
2022-08-18T07:55:09.970Z,13.80
2022-08-18T07:57:55.966Z,13.80
2022-08-18T08:01:00.786Z,13.90
2022-08-18T08:03:46.689Z,13.90
2022-08-18T08:06:20.192Z,13.90
2022-08-18T08:08:50.463Z,13.90
2022-08-18T08:11:59.622Z,14.00
2022-08-18T08:14:44.193Z,14.00
2022-08-18T08:17:42.780Z,14.00
2022-08-18T08:20:21.314Z,14.10
2022-08-18T08:23:01.553Z,14.10
2022-08-18T08:25:47.381Z,14.10
2022-08-18T08:28:33.611Z,14.10
2022-08-18T08:31:19.143Z,14.20
2022-08-18T08:34:29.462Z,14.20
2022-08-18T08:37:05.761Z,14.30
2022-08-18T08:40:20.120Z,14.30
2022-08-18T08:43:10.917Z,14.30
2022-08-18T08:45:57.419Z,14.40
2022-08-18T08:48:29.391Z,14.40
2022-08-18T08:51:03.006Z,14.40
2022-08-18T08:53:53.605Z,14.40
2022-08-18T08:56:24.053Z,14.50
2022-08-18T08:59:13.091Z,14.50
2022-08-18T09:01:49.443Z,14.50
2022-08-18T09:04:31.563Z,14.60
2022-08-18T09:07:29.995Z,14.60
2022-08-18T09:10:39.690Z,14.60
2022-08-18T09:13:49.014Z,14.60
2022-08-18T09:16:43.475Z,14.60
2022-08-18T09:19:28.869Z,14.60
2022-08-18T09:22:19.613Z,14.60
2022-08-18T09:24:53.253Z,14.60
2022-08-18T09:27:23.403Z,14.60
2022-08-18T09:29:55.565Z,14.60
2022-08-18T09:32:23.856Z,14.60
2022-08-18T09:35:33.064Z,14.60
2022-08-18T09:38:29.459Z,14.60
2022-08-18T09:41:18.519Z,14.60
2022-08-18T09:44:12.153Z,14.70
2022-08-18T09:46:48.343Z,14.70
2022-08-18T09:49:27.976Z,14.70
2022-08-18T09:52:21.252Z,14.70
2022-08-18T09:54:58.795Z,14.80
2022-08-18T09:57:27.395Z,14.80
2022-08-18T10:00:03.582Z,14.80
2022-08-18T10:02:37.167Z,14.90
2022-08-18T10:05:20.089Z,14.90
2022-08-18T10:07:50.713Z,14.90
2022-08-18T10:11:00.876Z,15.00
2022-08-18T10:13:52.975Z,15.10
2022-08-18T10:16:22.796Z,15.20
2022-08-18T10:19:12.048Z,15.30
2022-08-18T10:22:01.572Z,15.30
2022-08-18T10:24:35.943Z,15.40
2022-08-18T10:27:29.288Z,15.40
2022-08-18T10:29:58.374Z,15.50
2022-08-18T10:32:41.801Z,15.60
2022-08-18T10:35:36.742Z,15.70
2022-08-18T10:38:19.142Z,15.70
2022-08-18T10:41:15.181Z,15.90
2022-08-18T10:43:57.459Z,15.90
2022-08-18T10:46:39.613Z,16.00
2022-08-18T10:49:13.650Z,16.00
2022-08-18T10:51:59.138Z,16.00
2022-08-18T10:54:51.221Z,16.10
2022-08-18T10:57:37.353Z,16.20
2022-08-18T11:00:17.560Z,16.20
2022-08-18T11:02:48.738Z,16.10
2022-08-18T11:05:21.320Z,16.10
2022-08-18T11:07:52.177Z,16.10
2022-08-18T11:13:29.345Z,16.10
2022-08-18T11:16:02.698Z,16.10
2022-08-18T11:18:32.754Z,16.20
2022-08-18T11:21:42.859Z,16.10
2022-08-18T11:24:17.936Z,16.10
2022-08-18T11:26:52.625Z,16.10
2022-08-18T11:29:34.329Z,16.10
2022-08-18T11:32:23.176Z,16.10
2022-08-18T11:35:18.897Z,16.20
2022-08-18T11:37:58.551Z,16.30
2022-08-18T11:43:41.260Z,16.40
2022-08-18T11:46:32.678Z,16.50
2022-08-18T11:49:24.077Z,16.50
2022-08-18T11:52:05.748Z,16.50
2022-08-18T11:54:50.186Z,16.50
2022-08-18T11:57:46.897Z,16.30
2022-08-18T12:00:44.323Z,16.30
2022-08-18T12:03:38.253Z,16.10
2022-08-18T12:06:30.729Z,16.10
2022-08-18T12:10:04.358Z,16.10
2022-08-18T12:12:18.432Z,16.10
2022-08-18T12:15:04.905Z,16.00
2022-08-18T12:17:42.794Z,15.90
2022-08-18T12:20:19.708Z,15.90
2022-08-18T12:22:50.030Z,16.00
2022-08-18T12:25:24.510Z,16.00
2022-08-18T12:27:55.934Z,16.00
2022-08-18T12:30:23.592Z,16.00
2022-08-18T12:32:55.740Z,16.00
2022-08-18T12:35:41.837Z,15.90
2022-08-18T12:38:12.880Z,15.80
2022-08-18T12:40:42.314Z,15.80
2022-08-18T12:43:09.721Z,15.70
2022-08-18T12:48:27.405Z,15.60
2022-08-18T12:50:58.458Z,15.50
2022-08-18T12:53:29.457Z,15.50
2022-08-18T12:56:20.321Z,15.40
2022-08-18T12:58:48.388Z,15.40
2022-08-18T13:01:17.742Z,15.50
2022-08-18T13:04:10.695Z,15.60
2022-08-18T13:06:40.726Z,15.50
2022-08-18T13:09:16.772Z,15.60
2022-08-18T13:11:56.475Z,15.70
2022-08-18T13:14:28.550Z,16.10
2022-08-18T13:16:55.785Z,16.10
2022-08-18T13:19:22.991Z,16.10
2022-08-18T13:21:51.158Z,16.10
2022-08-18T13:24:22.046Z,16.10
2022-08-18T13:26:51.685Z,16.10
2022-08-18T13:29:19.554Z,16.10
2022-08-18T13:31:55.499Z,16.10
2022-08-18T13:34:24.469Z,16.20
2022-08-18T13:36:51.745Z,16.30
2022-08-18T13:39:22.720Z,16.40
2022-08-18T13:41:53.785Z,16.60
2022-08-18T13:44:25.806Z,16.70
2022-08-18T13:46:54.573Z,16.90
2022-08-18T13:49:30.035Z,16.80
2022-08-18T13:52:00.902Z,16.70
2022-08-18T13:54:35.328Z,16.60
2022-08-18T13:57:04.232Z,16.50
2022-08-18T13:59:34.644Z,16.30
2022-08-18T14:02:08.365Z,16.30
2022-08-18T14:04:38.615Z,16.30
2022-08-18T14:07:11.145Z,16.30
2022-08-18T14:09:39.820Z,16.30
2022-08-18T14:12:15.816Z,16.40
2022-08-18T14:14:52.431Z,16.40
2022-08-18T14:17:22.649Z,16.40
2022-08-18T14:20:15.391Z,16.50
2022-08-18T14:23:10.706Z,16.50
2022-08-18T14:25:59.683Z,16.50
2022-08-18T14:28:28.537Z,16.70
2022-08-18T14:30:57.425Z,16.80
2022-08-18T14:33:34.244Z,17.00
2022-08-18T14:36:15.271Z,17.20
2022-08-18T14:38:43.341Z,17.60
2022-08-18T14:41:13.059Z,17.70
2022-08-18T14:44:11.198Z,17.60
2022-08-18T14:46:30.609Z,17.40
2022-08-18T14:49:04.044Z,17.30
2022-08-18T14:51:33.682Z,17.40
2022-08-18T14:54:02.202Z,17.40
2022-08-18T14:56:29.737Z,17.30
2022-08-18T14:59:01.116Z,17.30
2022-08-18T15:01:28.353Z,17.30
2022-08-18T15:04:19.329Z,17.10
2022-08-18T15:06:56.831Z,17.00
2022-08-18T15:09:30.339Z,17.00
2022-08-18T15:11:58.568Z,17.10
2022-08-18T15:14:33.261Z,17.20
2022-08-18T15:17:01.975Z,17.20
2022-08-18T15:19:37.826Z,17.30
2022-08-18T15:22:35.885Z,17.30
2022-08-18T15:25:24.144Z,17.30
2022-08-18T15:27:52.612Z,17.30
2022-08-18T15:30:21.300Z,17.40
2022-08-18T15:32:50.055Z,17.50
2022-08-18T15:35:19.615Z,17.50
2022-08-18T15:37:51.096Z,17.40
2022-08-18T15:40:31.184Z,17.30
2022-08-18T15:43:09.575Z,17.30
2022-08-18T15:45:56.508Z,17.40
2022-08-18T15:48:28.157Z,17.40
2022-08-18T15:50:56.895Z,17.30
2022-08-18T15:53:29.663Z,17.30
2022-08-18T15:55:58.087Z,17.30
2022-08-18T15:58:26.665Z,17.40
2022-08-18T16:00:54.693Z,17.40
2022-08-18T16:03:22.005Z,17.40
2022-08-18T16:05:55.375Z,17.30
2022-08-18T16:08:25.032Z,17.40
2022-08-18T16:10:53.960Z,17.40
2022-08-18T16:13:21.968Z,17.40
2022-08-18T16:15:50.484Z,17.50
2022-08-18T16:18:21.189Z,17.40
2022-08-18T16:20:50.681Z,17.20
2022-08-18T16:23:20.232Z,17.10
2022-08-18T16:25:47.323Z,17.00
2022-08-18T16:28:14.609Z,17.00
2022-08-18T16:30:42.062Z,17.00
2022-08-18T16:33:09.623Z,17.00
2022-08-18T16:35:37.652Z,17.10
2022-08-18T16:38:09.392Z,17.20
2022-08-18T16:40:37.661Z,17.20
2022-08-18T16:43:06.014Z,17.20
2022-08-18T16:45:38.294Z,17.20
2022-08-18T16:48:08.198Z,17.20
2022-08-18T16:50:37.960Z,17.10
2022-08-18T16:53:05.706Z,17.10
2022-08-18T16:55:32.978Z,17.10
2022-08-18T16:58:18.708Z,17.10
2022-08-18T17:01:04.300Z,17.20
2022-08-18T17:03:50.005Z,17.30
2022-08-18T17:06:18.176Z,17.30
2022-08-18T17:08:45.888Z,17.30
2022-08-18T17:11:16.602Z,17.30
2022-08-18T17:13:44.067Z,17.30
2022-08-18T17:16:12.213Z,17.30
2022-08-18T17:18:39.842Z,17.30
2022-08-18T17:21:09.651Z,17.30
2022-08-18T17:23:39.053Z,17.20
2022-08-18T17:26:12.747Z,17.20
2022-08-18T17:28:50.782Z,17.10
2022-08-18T17:31:24.946Z,16.90
2022-08-18T17:33:57.049Z,16.90
2022-08-18T17:36:39.058Z,16.90
2022-08-18T17:39:08.662Z,16.80
2022-08-18T17:41:58.680Z,16.80
2022-08-18T17:44:28.638Z,16.80
2022-08-18T17:47:00.649Z,16.90
2022-08-18T17:49:49.185Z,16.90
2022-08-18T17:52:53.385Z,16.80
2022-08-18T17:55:27.241Z,16.80
2022-08-18T17:58:28.120Z,16.80
2022-08-18T18:00:55.381Z,16.80
2022-08-18T18:03:23.214Z,16.80
2022-08-18T18:06:08.721Z,16.90
2022-08-18T18:08:51.020Z,16.90
2022-08-18T18:11:35.286Z,16.90
2022-08-18T18:14:24.325Z,16.90
2022-08-18T18:17:07.295Z,16.80
2022-08-18T18:19:35.802Z,16.70
2022-08-18T18:22:16.803Z,16.70
2022-08-18T18:24:57.213Z,16.70
2022-08-18T18:27:37.158Z,16.70
2022-08-18T18:30:27.610Z,16.70
2022-08-18T18:33:02.868Z,16.70
2022-08-18T18:35:54.906Z,16.70
2022-08-18T18:38:27.737Z,16.70
2022-08-18T18:40:59.676Z,16.70
2022-08-18T18:43:47.022Z,16.70
2022-08-18T18:46:19.516Z,16.70
2022-08-18T18:49:01.857Z,16.70
2022-08-18T18:51:56.895Z,16.70
2022-08-18T18:54:39.876Z,16.70
2022-08-18T18:57:13.623Z,16.70
2022-08-18T19:00:19.813Z,16.70
2022-08-18T19:02:56.700Z,16.70
2022-08-18T19:05:59.173Z,16.70
2022-08-18T19:08:56.866Z,16.70
2022-08-18T19:11:53.267Z,16.70
2022-08-18T19:14:49.897Z,16.70
2022-08-18T19:17:36.549Z,16.70
2022-08-18T19:22:04.853Z,16.70
2022-08-18T19:23:55.442Z,16.60
2022-08-18T19:26:39.264Z,16.60
2022-08-18T19:29:13.994Z,16.60
2022-08-18T19:32:01.552Z,16.60
2022-08-18T19:34:32.651Z,16.50
2022-08-18T19:37:27.336Z,16.40
2022-08-18T19:39:58.749Z,16.40
2022-08-18T19:42:39.952Z,16.40
2022-08-18T19:45:29.893Z,16.30
2022-08-18T19:48:07.525Z,16.30
2022-08-18T19:50:43.407Z,16.30
2022-08-18T19:53:17.829Z,16.30
2022-08-18T19:56:02.455Z,16.30
2022-08-18T19:59:15.589Z,16.20
2022-08-18T20:01:52.235Z,16.20
2022-08-18T20:04:37.995Z,16.10
2022-08-18T20:07:38.980Z,16.10
2022-08-18T20:10:21.118Z,16.00
2022-08-18T20:13:03.271Z,16.00
2022-08-18T20:15:31.201Z,16.00
2022-08-18T20:17:58.306Z,16.00
2022-08-18T20:20:32.576Z,16.00
2022-08-18T20:23:30.831Z,16.00
2022-08-18T20:25:58.054Z,15.90
2022-08-18T20:28:38.520Z,15.90
2022-08-18T20:31:16.183Z,15.80
2022-08-18T20:34:11.067Z,15.80
2022-08-18T20:36:42.871Z,15.80
2022-08-18T20:39:32.472Z,15.80
2022-08-18T20:42:04.823Z,15.80
2022-08-18T20:44:37.555Z,15.80
2022-08-18T20:47:31.339Z,15.80
2022-08-18T20:50:19.736Z,15.80
2022-08-18T20:52:49.302Z,15.80
2022-08-18T20:55:30.913Z,15.80
2022-08-18T20:58:05.463Z,15.80
2022-08-18T21:00:37.565Z,15.80
2022-08-18T21:03:13.328Z,15.80
2022-08-18T21:05:43.766Z,15.80
2022-08-18T21:08:16.732Z,15.80
2022-08-18T21:10:51.799Z,15.80
2022-08-18T21:13:40.661Z,15.70
2022-08-18T21:16:10.372Z,15.70
2022-08-18T21:18:39.659Z,15.70
2022-08-18T21:21:15.573Z,15.70
2022-08-18T21:23:52.984Z,15.60
2022-08-18T21:26:21.460Z,15.50
2022-08-18T21:28:55.144Z,15.50
2022-08-18T21:31:45.117Z,15.40
2022-08-18T21:34:34.560Z,15.40
2022-08-18T21:37:08.730Z,15.30
2022-08-18T21:39:47.712Z,15.30
2022-08-18T21:42:40.732Z,15.20
2022-08-18T21:45:18.774Z,15.20
2022-08-18T21:47:52.622Z,15.10
2022-08-18T21:50:24.256Z,15.10
2022-08-18T21:52:57.403Z,15.10
2022-08-18T21:55:27.334Z,15.10
2022-08-18T21:58:16.948Z,15.00
2022-08-18T22:00:47.193Z,15.00
2022-08-18T22:03:24.063Z,15.00
2022-08-18T22:06:12.401Z,15.00
2022-08-18T22:09:23.190Z,15.00
2022-08-18T22:12:40.989Z,15.00
2022-08-18T22:15:10.916Z,15.00
2022-08-18T22:17:49.421Z,15.00
2022-08-18T22:20:45.739Z,15.10
2022-08-18T22:23:34.278Z,15.10
2022-08-18T22:26:13.145Z,15.10
2022-08-18T22:28:46.735Z,15.10
2022-08-18T22:31:18.143Z,15.10
2022-08-18T22:33:48.408Z,15.10
2022-08-18T22:36:25.962Z,15.10
2022-08-18T22:38:54.233Z,15.20
2022-08-18T22:41:22.223Z,15.20
2022-08-18T22:43:52.754Z,15.10
2022-08-18T22:46:24.680Z,15.00
2022-08-18T22:48:52.893Z,14.90
2022-08-18T22:51:24.209Z,14.80
2022-08-18T22:53:51.819Z,14.70
2022-08-18T22:56:33.854Z,14.60
2022-08-18T22:59:13.537Z,14.40
2022-08-18T23:01:46.344Z,14.30
2022-08-18T23:04:16.028Z,14.30
2022-08-18T23:06:51.583Z,14.20
2022-08-18T23:09:24.772Z,14.10
2022-08-18T23:11:53.695Z,14.00
2022-08-18T23:14:22.354Z,14.00
2022-08-18T23:16:50.508Z,13.90
2022-08-18T23:19:19.649Z,13.80
2022-08-18T23:21:48.742Z,13.60
2022-08-18T23:24:18.568Z,13.50
2022-08-18T23:26:45.913Z,13.50
2022-08-18T23:29:14.551Z,13.40
2022-08-18T23:31:44.215Z,13.30
2022-08-18T23:34:13.780Z,13.30
2022-08-18T23:36:45.362Z,13.10
2022-08-18T23:39:14.642Z,13.10
2022-08-18T23:41:42.808Z,13.00
2022-08-18T23:44:11.471Z,12.90
2022-08-18T23:46:39.912Z,12.90
2022-08-18T23:49:10.705Z,12.80
2022-08-18T23:51:51.052Z,12.80
2022-08-18T23:54:21.687Z,12.70
2022-08-18T23:56:49.187Z,12.60
2022-08-18T23:59:17.930Z,12.60
